Time;durP1;ratioP1;P1;durP2;ratioP2;P2;SDS_P1;SDS_P2;PMS_P1;PMS_P2;Temp;Humidity;BMP_temperature;BMP_pressure;BME280_temperature;BME280_humidity;BME280_pressure;Samples;Min_cycle;Max_cycle;Signal;HPM_P1;HPM_P2
2021/03/08 00:00:46;;;;;;;10.00;7.70;;;9.30;41.70;;;;;;2074421;28;20827;-61
2021/03/08 00:02:08;;;;;;;9.45;7.65;;;9.30;41.80;;;;;;2073014;28;20109;-61
2021/03/08 00:03:29;;;;;;;10.50;7.40;;;9.30;41.90;;;;;;2068588;28;20124;-61
2021/03/08 00:04:49;;;;;;;9.93;8.15;;;9.30;41.80;;;;;;2068419;28;20027;-60
2021/03/08 00:06:10;;;;;;;10.10;7.75;;;9.30;41.80;;;;;;2069939;28;20129;-60
2021/03/08 00:07:31;;;;;;;12.40;8.10;;;9.30;42.00;;;;;;2071110;28;20044;-60
2021/03/08 00:08:53;;;;;;;9.50;7.80;;;9.20;42.00;;;;;;2072103;28;20030;-59
2021/03/08 00:10:16;;;;;;;9.25;8.02;;;9.30;42.10;;;;;;2066116;28;20078;-60
2021/03/08 00:11:37;;;;;;;11.18;7.90;;;9.20;42.20;;;;;;2070450;28;20030;-61
2021/03/08 00:12:58;;;;;;;12.23;8.60;;;9.20;42.10;;;;;;2066932;28;20128;-61
2021/03/08 00:14:19;;;;;;;13.65;8.95;;;9.20;42.20;;;;;;2069912;28;20085;-61
2021/03/08 00:15:40;;;;;;;10.95;8.00;;;9.20;42.40;;;;;;2071739;28;20084;-61
2021/03/08 00:17:02;;;;;;;10.43;8.43;;;9.20;42.50;;;;;;2073689;28;20451;-60
2021/03/08 00:18:23;;;;;;;10.40;8.57;;;9.20;42.80;;;;;;2069248;28;20841;-60
2021/03/08 00:19:44;;;;;;;11.50;8.38;;;9.20;42.80;;;;;;2070104;28;20061;-60
2021/03/08 00:21:05;;;;;;;13.50;8.50;;;9.20;42.80;;;;;;2071396;28;20376;-62
2021/03/08 00:22:26;;;;;;;11.90;9.38;;;9.20;42.90;;;;;;2073469;28;20085;-60
2021/03/08 00:23:47;;;;;;;11.77;8.63;;;9.20;42.90;;;;;;2073254;28;20030;-60
2021/03/08 00:25:11;;;;;;;13.05;9.10;;;9.20;42.80;;;;;;2068629;28;20092;-59
2021/03/08 00:26:32;;;;;;;12.15;8.65;;;9.20;42.90;;;;;;2071546;28;20030;-61
2021/03/08 00:27:53;;;;;;;11.20;9.02;;;9.20;42.80;;;;;;2073186;28;20126;-60
2021/03/08 00:29:14;;;;;;;11.13;8.90;;;9.20;42.90;;;;;;2071181;28;20042;-60
2021/03/08 00:30:35;;;;;;;10.65;8.85;;;9.20;42.90;;;;;;2072307;28;20030;-59
2021/03/08 00:31:56;;;;;;;10.63;8.55;;;9.20;42.80;;;;;;2071852;28;20034;-62
2021/03/08 00:33:17;;;;;;;10.98;8.68;;;9.10;42.80;;;;;;2072514;28;20113;-61
2021/03/08 00:34:38;;;;;;;13.00;9.40;;;9.10;42.70;;;;;;2071909;28;20029;-60
2021/03/08 00:35:59;;;;;;;11.80;8.55;;;9.10;42.70;;;;;;2072096;28;20034;-61
2021/03/08 00:37:19;;;;;;;14.80;9.15;;;9.10;42.60;;;;;;2069626;28;20027;-61
2021/03/08 00:38:40;;;;;;;10.80;8.30;;;9.10;42.70;;;;;;2069983;28;20493;-61
2021/03/08 00:40:10;;;;;;;13.73;9.65;;;9.10;42.70;;;;;;2073343;28;20037;-61
2021/03/08 00:41:31;;;;;;;;;;;9.10;42.80;;;;;;2074162;28;20461;-61
2021/03/08 00:42:53;;;;;;;11.00;8.65;;;9.20;43.00;;;;;;2068483;28;19924;-61
2021/03/08 00:44:13;;;;;;;12.82;9.07;;;9.20;42.40;;;;;;2070454;28;20038;-61
2021/03/08 00:45:34;;;;;;;11.10;8.82;;;9.20;42.40;;;;;;2073019;28;20025;-61
2021/03/08 00:46:55;;;;;;;12.65;9.48;;;9.20;42.40;;;;;;2065759;28;20342;-61
2021/03/08 00:48:16;;;;;;;13.95;9.40;;;9.10;42.40;;;;;;2065741;28;20034;-61
2021/03/08 00:49:37;;;;;;;13.10;9.50;;;9.10;42.50;;;;;;2071430;28;20033;-61
2021/03/08 00:50:58;;;;;;;12.82;9.82;;;9.10;42.40;;;;;;2070957;28;20065;-60
2021/03/08 00:52:19;;;;;;;12.98;10.15;;;9.10;42.90;;;;;;2073081;28;20038;-61
2021/03/08 00:53:40;;;;;;;12.48;9.38;;;9.10;42.40;;;;;;2070811;28;20504;-60
2021/03/08 00:55:00;;;;;;;12.15;9.50;;;9.10;42.50;;;;;;2071798;28;20117;-60
2021/03/08 00:56:21;;;;;;;12.07;9.40;;;9.10;42.40;;;;;;2066955;28;20038;-61
2021/03/08 00:57:43;;;;;;;13.55;9.55;;;9.10;42.50;;;;;;2069698;28;20030;-61
2021/03/08 00:59:03;;;;;;;12.52;9.18;;;9.10;42.70;;;;;;2067193;28;20036;-61
2021/03/08 01:00:27;;;;;;;12.75;9.35;;;9.10;43.30;;;;;;2072875;28;20038;-60
2021/03/08 01:01:48;;;;;;;12.13;9.75;;;9.10;42.80;;;;;;2072276;28;20040;-61
2021/03/08 01:03:09;;;;;;;11.57;9.35;;;9.10;42.70;;;;;;2069965;28;20034;-61
2021/03/08 01:04:29;;;;;;;11.15;8.85;;;9.10;42.70;;;;;;2070212;28;20464;-60
2021/03/08 01:05:50;;;;;;;12.38;9.55;;;9.10;42.70;;;;;;2073140;28;20036;-60
2021/03/08 01:07:12;;;;;;;11.25;8.77;;;9.10;42.70;;;;;;2067846;28;20030;-60
2021/03/08 01:08:32;;;;;;;12.10;9.65;;;9.10;42.70;;;;;;2067667;28;20022;-59
2021/03/08 01:09:53;;;;;;;12.90;9.35;;;9.10;42.80;;;;;;2071914;28;20029;-60
2021/03/08 01:11:14;;;;;;;12.77;10.52;;;9.10;42.80;;;;;;2064496;28;20027;-61
2021/03/08 01:12:35;;;;;;;12.73;9.45;;;9.10;42.90;;;;;;2069637;28;20507;-61
2021/03/08 01:13:56;;;;;;;15.13;9.95;;;9.10;43.00;;;;;;2067830;28;20051;-60
2021/03/08 01:15:17;;;;;;;16.15;10.98;;;9.10;43.10;;;;;;2066561;28;20046;-60
2021/03/08 01:16:38;;;;;;;15.20;10.45;;;9.10;43.00;;;;;;2061977;28;20023;-61
2021/03/08 01:17:59;;;;;;;14.00;9.93;;;9.10;43.10;;;;;;2070397;28;20461;-61
2021/03/08 01:19:20;;;;;;;14.10;10.73;;;9.10;43.10;;;;;;2067060;28;20057;-60
2021/03/08 01:20:41;;;;;;;12.93;10.20;;;9.10;43.20;;;;;;2071430;28;20033;-61
2021/03/08 01:22:02;;;;;;;12.65;9.57;;;9.10;43.20;;;;;;2072776;28;20038;-61
2021/03/08 01:23:23;;;;;;;15.90;11.38;;;9.10;43.30;;;;;;2065179;28;20099;-59
2021/03/08 01:24:44;;;;;;;15.52;10.52;;;9.00;43.20;;;;;;2070619;28;20034;-60
2021/03/08 01:26:05;;;;;;;16.27;10.77;;;9.00;43.40;;;;;;2071034;28;20220;-61
2021/03/08 01:27:26;;;;;;;13.88;10.02;;;9.00;43.50;;;;;;2071264;28;20076;-60
2021/03/08 01:28:47;;;;;;;16.02;11.98;;;9.00;43.50;;;;;;2069592;28;20481;-60
2021/03/08 01:30:18;;;;;;;13.95;10.27;;;9.00;43.60;;;;;;2064533;28;20733;-60
2021/03/08 01:31:39;;;;;;;13.63;10.02;;;9.10;43.70;;;;;;2071731;28;20042;-61
2021/03/08 01:33:00;;;;;;;15.35;10.93;;;9.00;43.50;;;;;;2068230;28;20065;-60
2021/03/08 01:34:21;;;;;;;12.82;9.63;;;9.10;43.40;;;;;;2070704;28;20132;-61
2021/03/08 01:35:42;;;;;;;16.65;11.68;;;9.00;43.40;;;;;;2069499;28;20038;-60
2021/03/08 01:37:03;;;;;;;16.60;10.50;;;9.10;43.40;;;;;;2070118;28;20601;-60
2021/03/08 01:38:24;;;;;;;14.98;10.68;;;9.00;43.40;;;;;;2073920;28;20044;-61
2021/03/08 01:39:45;;;;;;;15.00;10.75;;;9.00;43.40;;;;;;2073022;28;20595;-59
2021/03/08 01:41:06;;;;;;;16.60;11.80;;;9.00;43.40;;;;;;2071475;28;20771;-59
2021/03/08 01:42:27;;;;;;;18.08;10.90;;;9.10;43.50;;;;;;2070261;28;20425;-61
2021/03/08 01:43:47;;;;;;;15.45;10.40;;;9.00;43.40;;;;;;2071367;28;20049;-60
2021/03/08 01:45:11;;;;;;;15.30;10.90;;;9.00;43.50;;;;;;2069509;28;20449;-60
2021/03/08 01:46:32;;;;;;;14.20;10.80;;;9.00;43.60;;;;;;2067887;28;20032;-60
2021/03/08 01:47:53;;;;;;;15.60;10.95;;;9.00;44.00;;;;;;2072371;28;20037;-60
2021/03/08 01:49:14;;;;;;;16.00;10.57;;;9.00;44.00;;;;;;2066831;28;20128;-61
2021/03/08 01:50:38;;;;;;;15.88;11.57;;;9.00;43.40;;;;;;2064406;28;20105;-59
2021/03/08 01:51:59;;;;;;;16.60;11.57;;;9.00;43.50;;;;;;2072131;28;20109;-61
2021/03/08 01:53:21;;;;;;;14.77;10.73;;;9.00;43.40;;;;;;2071281;28;20022;-61
2021/03/08 01:54:42;;;;;;;14.70;11.23;;;9.00;43.40;;;;;;2070236;28;20026;-61
2021/03/08 01:56:04;;;;;;;14.27;11.10;;;9.00;43.40;;;;;;2056450;28;20130;-61
2021/03/08 01:57:25;;;;;;;18.45;11.90;;;9.00;43.40;;;;;;2065493;28;20033;-61
2021/03/08 01:58:46;;;;;;;15.25;11.27;;;9.00;43.40;;;;;;2069128;28;20504;-61
2021/03/08 02:00:08;;;;;;;14.52;11.10;;;9.00;43.40;;;;;;2070414;28;20092;-61
2021/03/08 02:01:29;;;;;;;15.10;10.80;;;9.00;43.50;;;;;;2068111;28;20088;-61
2021/03/08 02:02:51;;;;;;;17.83;12.07;;;9.00;43.50;;;;;;2071874;28;20105;-61
2021/03/08 02:04:12;;;;;;;13.43;11.05;;;8.90;43.50;;;;;;2069559;28;20453;-61
2021/03/08 02:05:43;;;;;;;16.38;11.63;;;8.90;43.50;;;;;;2061394;28;20039;-61
2021/03/08 02:07:04;;;;;;;13.85;10.63;;;9.00;43.80;;;;;;2067329;28;20080;-61
2021/03/08 02:08:26;;;;;;;14.35;11.35;;;8.90;43.60;;;;;;2072452;28;20030;-61
2021/03/08 02:09:47;;;;;;;16.60;11.88;;;8.90;43.70;;;;;;2068925;28;20037;-62
2021/03/08 02:11:07;;;;;;;17.20;11.57;;;8.90;43.70;;;;;;2068638;28;20085;-61
2021/03/08 02:12:37;;;;;;;16.83;11.63;;;8.90;43.80;;;;;;2069649;28;20171;-61
2021/03/08 02:14:16;;;;;;;16.88;11.70;;;8.90;44.00;;;;;;2067923;28;20136;-61
2021/03/08 02:15:49;;;;;;;16.60;11.88;;;8.90;44.00;;;;;;2066251;28;20030;-61
2021/03/08 02:17:16;;;;;;;17.50;12.35;;;8.90;43.70;;;;;;2071702;28;20030;-60
2021/03/08 02:18:39;;;;;;;16.55;11.55;;;8.90;43.80;;;;;;2071705;28;20076;-60
2021/03/08 02:20:34;;;;;;;17.27;11.25;;;8.90;44.40;;;;;;2069018;28;20034;-60
2021/03/08 02:22:44;;;;;;;14.30;10.95;;;8.90;44.00;;;;;;2072567;28;20432;-60
2021/03/08 02:24:24;;;;;;;14.75;10.52;;;8.90;44.00;;;;;;2068605;28;20034;-60
2021/03/08 02:26:07;;;;;;;15.48;10.48;;;8.90;43.60;;;;;;2072311;28;20037;-61
2021/03/08 02:27:41;;;;;;;16.33;11.52;;;8.90;43.70;;;;;;2068763;28;20111;-59
2021/03/08 02:29:38;;;;;;;15.35;11.27;;;8.90;43.90;;;;;;2071868;28;20188;-61
2021/03/08 02:31:04;;;;;;;17.25;12.20;;;8.90;43.90;;;;;;2072767;28;20168;-61
2021/03/08 02:32:47;;;;;;;17.23;11.40;;;8.90;43.70;;;;;;2067774;28;20030;-61
2021/03/08 02:34:11;;;;;;;17.85;12.18;;;8.80;44.00;;;;;;2059392;28;20034;-62
2021/03/08 02:35:36;;;;;;;16.45;11.70;;;8.80;43.70;;;;;;2067249;28;20038;-62
2021/03/08 02:37:10;;;;;;;16.38;11.95;;;8.80;43.80;;;;;;2063297;28;20167;-62
2021/03/08 02:38:38;;;;;;;16.80;12.20;;;8.80;44.10;;;;;;2068149;28;20084;-61
2021/03/08 02:40:08;;;;;;;20.38;12.35;;;8.80;43.90;;;;;;2071009;28;20034;-61
2021/03/08 02:41:31;;;;;;;17.92;12.63;;;8.80;44.00;;;;;;2066633;28;20515;-61
2021/03/08 02:42:56;;;;;;;20.58;13.23;;;8.80;43.90;;;;;;2068077;28;20436;-62
2021/03/08 02:44:22;;;;;;;18.58;12.63;;;8.80;44.10;;;;;;2068394;28;20030;-61
2021/03/08 02:45:46;;;;;;;17.88;12.93;;;8.80;44.20;;;;;;2069907;28;20041;-61
2021/03/08 02:47:09;;;;;;;16.42;12.23;;;8.80;44.20;;;;;;2072932;28;20425;-61
2021/03/08 02:48:32;;;;;;;19.13;12.90;;;8.80;44.20;;;;;;2068237;28;20025;-62
2021/03/08 02:49:55;;;;;;;20.77;14.05;;;8.80;44.20;;;;;;2070106;28;20026;-61
2021/03/08 02:51:19;;;;;;;21.48;13.60;;;8.70;44.30;;;;;;2070743;28;20022;-61
2021/03/08 02:52:48;;;;;;;20.02;12.68;;;8.70;44.30;;;;;;2068388;28;20366;-60
2021/03/08 02:54:10;;;;;;;20.83;13.98;;;8.70;44.50;;;;;;2070668;28;20053;-61
2021/03/08 02:55:38;;;;;;;18.30;12.88;;;8.70;44.40;;;;;;2071485;28;20029;-61
2021/03/08 02:57:03;;;;;;;21.13;13.50;;;8.70;44.50;;;;;;2071934;28;20038;-60
2021/03/08 02:58:25;;;;;;;18.83;12.40;;;8.70;44.50;;;;;;2071757;28;20104;-61
2021/03/08 02:59:48;;;;;;;17.98;12.57;;;8.70;44.40;;;;;;2071887;28;20026;-61
2021/03/08 03:01:10;;;;;;;20.90;12.80;;;8.70;44.50;;;;;;2070662;28;20144;-61
2021/03/08 03:02:30;;;;;;;20.25;13.65;;;8.70;44.50;;;;;;2072132;28;20176;-62
2021/03/08 03:03:55;;;;;;;18.05;12.82;;;8.70;44.50;;;;;;2071233;28;20480;-61
2021/03/08 03:05:17;;;;;;;19.38;12.80;;;8.70;44.50;;;;;;2070250;28;20431;-61
2021/03/08 03:06:39;;;;;;;18.58;13.20;;;8.70;44.50;;;;;;2068081;28;20046;-61
2021/03/08 03:08:02;;;;;;;20.45;14.07;;;8.70;44.60;;;;;;2071460;28;20528;-61
2021/03/08 03:09:25;;;;;;;21.77;14.77;;;8.70;44.60;;;;;;2071674;28;20038;-61
2021/03/08 03:10:46;;;;;;;21.63;13.85;;;8.70;44.70;;;;;;2071968;28;20831;-61
2021/03/08 03:12:09;;;;;;;19.77;14.35;;;8.70;44.80;;;;;;2068647;28;20147;-61
2021/03/08 03:13:31;;;;;;;22.98;13.93;;;8.70;44.80;;;;;;2059921;28;20046;-61
2021/03/08 03:14:53;;;;;;;20.02;14.18;;;8.70;44.80;;;;;;2066723;28;20040;-61
2021/03/08 03:16:15;;;;;;;19.85;13.63;;;8.60;44.80;;;;;;2066028;28;20127;-61
2021/03/08 03:17:37;;;;;;;17.23;13.48;;;8.70;44.90;;;;;;2071660;28;20048;-61
2021/03/08 03:19:00;;;;;;;23.92;15.10;;;8.60;44.90;;;;;;2068900;28;20547;-61
2021/03/08 03:20:22;;;;;;;20.58;14.27;;;8.60;44.90;;;;;;2066997;28;20041;-59
2021/03/08 03:21:45;;;;;;;22.33;14.52;;;8.60;45.00;;;;;;2067068;28;20030;-61
2021/03/08 03:23:08;;;;;;;19.30;14.05;;;8.60;44.90;;;;;;2066225;28;20041;-60
2021/03/08 03:24:31;;;;;;;20.95;14.30;;;8.60;45.00;;;;;;2068602;28;20037;-61
2021/03/08 03:25:52;;;;;;;19.90;13.55;;;8.60;45.00;;;;;;2066964;28;20042;-61
2021/03/08 03:27:15;;;;;;;22.50;14.73;;;8.60;45.00;;;;;;2067114;28;20041;-60
2021/03/08 03:28:36;;;;;;;22.60;14.43;;;8.60;45.10;;;;;;2066402;28;20026;-60
2021/03/08 03:29:58;;;;;;;18.25;13.50;;;8.60;45.10;;;;;;2070050;28;20034;-61
2021/03/08 03:31:21;;;;;;;24.33;14.23;;;8.60;45.20;;;;;;2070027;28;20168;-60
2021/03/08 03:32:43;;;;;;;23.10;14.70;;;8.60;45.30;;;;;;2071688;28;20346;-61
2021/03/08 03:34:05;;;;;;;20.65;14.57;;;8.60;45.30;;;;;;2058786;28;20042;-61
2021/03/08 03:35:28;;;;;;;25.60;15.43;;;8.60;45.30;;;;;;2064887;28;20456;-60
2021/03/08 03:36:50;;;;;;;22.67;15.20;;;8.60;45.40;;;;;;2067108;28;20045;-61
2021/03/08 03:38:13;;;;;;;20.70;14.55;;;8.50;45.40;;;;;;2070646;28;20030;-60
2021/03/08 03:39:34;;;;;;;20.75;14.07;;;8.50;45.40;;;;;;2066573;28;20372;-61
2021/03/08 03:40:57;;;;;;;20.58;14.25;;;8.50;45.40;;;;;;2065686;28;20042;-61
2021/03/08 03:42:19;;;;;;;23.95;14.82;;;8.50;45.50;;;;;;2070568;28;20037;-60
2021/03/08 03:43:40;;;;;;;21.88;14.68;;;8.50;45.40;;;;;;2059363;28;20043;-61
2021/03/08 03:45:05;;;;;;;21.70;13.90;;;8.50;45.50;;;;;;2068735;28;20190;-61
2021/03/08 03:46:26;;;;;;;22.83;15.40;;;8.50;45.50;;;;;;2065233;28;20516;-61
2021/03/08 03:47:47;;;;;;;21.30;14.27;;;8.50;45.50;;;;;;2071975;28;20045;-61
2021/03/08 03:49:10;;;;;;;22.70;15.68;;;8.50;45.70;;;;;;2069214;28;20034;-61
2021/03/08 03:50:31;;;;;;;22.02;14.27;;;8.50;45.70;;;;;;2068752;28;20038;-61
2021/03/08 03:51:52;;;;;;;24.30;15.90;;;8.50;45.70;;;;;;2070551;28;20226;-61
2021/03/08 03:53:12;;;;;;;21.75;14.90;;;8.40;45.60;;;;;;2070681;28;20045;-61
2021/03/08 03:54:34;;;;;;;23.67;14.27;;;8.40;45.70;;;;;;2068963;28;20065;-60
2021/03/08 03:55:55;;;;;;;22.13;14.88;;;8.40;45.70;;;;;;2065347;28;20038;-60
2021/03/08 03:57:17;;;;;;;21.75;14.23;;;8.40;46.30;;;;;;2070139;28;20064;-61
2021/03/08 03:58:53;;;;;;;24.15;14.95;;;8.40;45.80;;;;;;2071697;28;20026;-61
2021/03/08 04:00:21;;;;;;;22.92;15.27;;;8.40;46.20;;;;;;2068821;28;20065;-61
2021/03/08 04:01:58;;;;;;;23.65;14.10;;;8.40;46.00;;;;;;2068172;28;20049;-61
2021/03/08 04:03:24;;;;;;;22.45;14.60;;;8.40;46.00;;;;;;2071126;28;20033;-61
2021/03/08 04:05:03;;;;;;;23.55;15.55;;;8.40;45.90;;;;;;2068895;28;20029;-61
2021/03/08 04:06:37;;;;;;;18.63;13.55;;;8.40;46.20;;;;;;2066650;28;20026;-61
2021/03/08 04:07:58;;;;;;;22.60;15.50;;;8.40;46.00;;;;;;2071230;28;20033;-61
2021/03/08 04:09:22;;;;;;;21.67;14.43;;;8.40;45.90;;;;;;2067977;28;20027;-61
2021/03/08 04:10:45;;;;;;;25.00;15.15;;;8.40;46.50;;;;;;2068031;28;20092;-61
2021/03/08 04:12:09;;;;;;;24.27;14.30;;;8.30;46.00;;;;;;2068979;28;20045;-60
2021/03/08 04:13:32;;;;;;;22.02;14.80;;;8.30;46.10;;;;;;2066078;28;20022;-61
2021/03/08 04:14:57;;;;;;;22.52;15.25;;;8.30;46.10;;;;;;2070453;28;20037;-61
2021/03/08 04:16:19;;;;;;;23.48;16.45;;;8.30;46.20;;;;;;2065627;28;20088;-61
2021/03/08 04:17:42;;;;;;;22.88;15.60;;;8.30;46.70;;;;;;2071065;28;20026;-60
2021/03/08 04:19:04;;;;;;;23.70;15.25;;;8.30;46.30;;;;;;2068510;28;20029;-60
2021/03/08 04:20:27;;;;;;;25.17;15.98;;;8.30;46.30;;;;;;2070452;28;20034;-62
2021/03/08 04:21:50;;;;;;;23.67;15.85;;;8.30;46.30;;;;;;2071353;28;20029;-60
2021/03/08 04:23:12;;;;;;;25.88;16.02;;;8.30;46.40;;;;;;2064583;28;20046;-61
2021/03/08 04:24:35;;;;;;;25.27;15.98;;;8.30;46.40;;;;;;2067253;28;20076;-61
2021/03/08 04:25:56;;;;;;;25.08;16.67;;;8.30;46.40;;;;;;2058042;28;20038;-60
2021/03/08 04:27:18;;;;;;;25.33;16.70;;;8.30;46.40;;;;;;2065117;28;20642;-61
2021/03/08 04:28:41;;;;;;;25.50;16.50;;;8.30;46.50;;;;;;2070102;28;20355;-61
2021/03/08 04:30:03;;;;;;;24.23;16.15;;;8.20;46.40;;;;;;2065406;28;20050;-61
2021/03/08 04:31:24;;;;;;;25.48;16.73;;;8.20;46.40;;;;;;2067737;28;20037;-61
2021/03/08 04:32:49;;;;;;;25.67;16.60;;;8.20;46.90;;;;;;2060160;28;20037;-61
2021/03/08 04:34:11;;;;;;;23.17;15.82;;;8.20;46.60;;;;;;2065906;28;20042;-62
2021/03/08 04:35:32;;;;;;;26.25;16.48;;;8.20;46.40;;;;;;2066328;28;20121;-61
2021/03/08 04:36:53;;;;;;;25.90;16.70;;;8.20;46.50;;;;;;2067459;28;20061;-61
2021/03/08 04:38:15;;;;;;;28.40;17.75;;;8.20;46.60;;;;;;2069836;28;20025;-60
2021/03/08 04:39:38;;;;;;;27.73;18.05;;;8.20;46.80;;;;;;2070940;28;20037;-61
2021/03/08 04:40:59;;;;;;;25.25;17.17;;;8.20;46.80;;;;;;2072025;28;20045;-61
2021/03/08 04:42:21;;;;;;;26.35;16.52;;;8.20;46.70;;;;;;2072234;28;20038;-61
2021/03/08 04:43:43;;;;;;;25.95;16.42;;;8.20;46.70;;;;;;2067913;28;20112;-60
2021/03/08 04:45:04;;;;;;;28.15;17.58;;;8.20;46.80;;;;;;2069784;28;20057;-61
2021/03/08 04:46:26;;;;;;;27.38;17.50;;;8.20;46.80;;;;;;2073047;28;20017;-60
2021/03/08 04:47:48;;;;;;;28.13;18.02;;;8.20;46.90;;;;;;2069389;28;20054;-60
2021/03/08 04:49:09;;;;;;;26.05;16.70;;;8.20;46.90;;;;;;2073044;28;20041;-61
2021/03/08 04:50:31;;;;;;;29.15;16.80;;;8.10;46.80;;;;;;2071104;28;20056;-61
2021/03/08 04:51:53;;;;;;;27.75;17.83;;;8.10;46.90;;;;;;2068546;28;20105;-61
2021/03/08 04:53:15;;;;;;;25.67;16.90;;;8.10;47.00;;;;;;2066346;28;20031;-60
2021/03/08 04:54:36;;;;;;;28.13;17.58;;;8.10;46.90;;;;;;2068498;28;20030;-61
2021/03/08 04:55:58;;;;;;;24.38;17.05;;;8.10;47.00;;;;;;2065649;28;20030;-61
2021/03/08 04:57:22;;;;;;;25.02;16.85;;;8.10;47.10;;;;;;2069518;28;20053;-61
2021/03/08 04:58:43;;;;;;;30.30;18.10;;;8.10;47.10;;;;;;2062995;28;20560;-61
2021/03/08 05:00:06;;;;;;;30.15;18.35;;;8.10;47.10;;;;;;2067138;28;20045;-61
2021/03/08 05:01:32;;;;;;;27.60;16.60;;;8.10;47.20;;;;;;2069044;28;20033;-61
2021/03/08 05:02:55;;;;;;;28.50;17.65;;;8.10;47.40;;;;;;2072400;28;20053;-61
2021/03/08 05:04:18;;;;;;;28.98;17.85;;;8.10;47.30;;;;;;2070779;28;20030;-61
2021/03/08 05:05:39;;;;;;;27.23;17.08;;;8.00;47.30;;;;;;2069224;28;20357;-60
2021/03/08 05:07:00;;;;;;;30.23;18.80;;;8.10;47.40;;;;;;2072929;28;20129;-60
2021/03/08 05:08:23;;;;;;;26.60;16.88;;;8.10;47.40;;;;;;2066096;28;20218;-60
2021/03/08 05:09:47;;;;;;;26.95;18.05;;;8.00;47.50;;;;;;2073264;28;20030;-61
2021/03/08 05:11:10;;;;;;;29.70;17.80;;;8.00;47.50;;;;;;2058341;28;20039;-60
2021/03/08 05:12:35;;;;;;;26.45;17.13;;;8.10;47.50;;;;;;2066600;28;20441;-61
2021/03/08 05:13:57;;;;;;;30.60;18.50;;;8.00;47.60;;;;;;2072057;28;20129;-60
2021/03/08 05:15:18;;;;;;;28.73;17.98;;;8.00;47.50;;;;;;2071884;28;20030;-61
2021/03/08 05:16:43;;;;;;;27.80;18.00;;;8.00;47.50;;;;;;2062232;28;20058;-61
2021/03/08 05:18:05;;;;;;;28.27;18.50;;;8.00;47.60;;;;;;2069648;28;20056;-61
2021/03/08 05:19:26;;;;;;;29.65;18.27;;;8.10;47.70;;;;;;2067969;28;20029;-61
2021/03/08 05:20:48;;;;;;;28.67;18.40;;;8.00;47.60;;;;;;2069314;28;20030;-61
2021/03/08 05:22:10;;;;;;;31.58;19.35;;;8.00;47.70;;;;;;2071082;28;20048;-60
2021/03/08 05:23:31;;;;;;;37.72;20.35;;;8.10;47.80;;;;;;2067965;28;20037;-61
2021/03/08 05:24:53;;;;;;;31.70;19.10;;;8.00;47.70;;;;;;2069426;28;20038;-61
2021/03/08 05:26:14;;;;;;;31.45;18.55;;;8.00;47.80;;;;;;2064879;28;20049;-60
2021/03/08 05:27:36;;;;;;;31.40;19.52;;;8.00;47.80;;;;;;2065932;28;20030;-60
2021/03/08 05:29:00;;;;;;;30.45;18.25;;;8.00;47.80;;;;;;2071833;28;20081;-61
2021/03/08 05:30:22;;;;;;;31.70;19.23;;;8.00;47.90;;;;;;2066153;28;20030;-61
2021/03/08 05:31:45;;;;;;;29.00;18.05;;;8.00;47.90;;;;;;2072021;28;20026;-61
2021/03/08 05:33:20;;;;;;;33.40;19.27;;;8.10;48.00;;;;;;2070901;28;20483;-61
2021/03/08 05:34:45;;;;;;;29.27;19.23;;;8.00;48.20;;;;;;2071012;28;20544;-61
2021/03/08 05:36:07;;;;;;;33.67;20.17;;;8.00;48.00;;;;;;2070534;28;20034;-61
2021/03/08 05:37:29;;;;;;;32.30;20.15;;;8.00;48.00;;;;;;2072780;28;20121;-61
2021/03/08 05:38:50;;;;;;;36.60;21.80;;;8.00;48.00;;;;;;2069263;28;20711;-60
2021/03/08 05:40:28;;;;;;;37.10;20.92;;;8.00;48.10;;;;;;2070009;28;20045;-61
2021/03/08 05:42:11;;;;;;;33.47;19.98;;;8.00;48.40;;;;;;2071593;28;20046;-60
2021/03/08 05:43:35;;;;;;;37.58;20.83;;;8.00;48.20;;;;;;2068404;28;20034;-61
2021/03/08 05:45:01;;;;;;;31.02;18.77;;;8.00;48.20;;;;;;2070988;28;20038;-60
2021/03/08 05:46:22;;;;;;;30.73;20.27;;;8.00;48.30;;;;;;2069658;28;20033;-60
2021/03/08 05:48:22;;;;;;;34.40;20.58;;;8.00;48.10;;;;;;2069675;28;20080;-60
2021/03/08 05:50:11;;;;;;;31.30;19.90;;;8.00;48.60;;;;;;2071989;28;20038;-61
2021/03/08 05:51:51;;;;;;;30.63;19.98;;;8.00;48.50;;;;;;2067603;28;20373;-61
2021/03/08 05:53:12;;;;;;;;;;;8.00;47.90;;;;;;2069656;28;20030;-61
2021/03/08 05:55:10;;;;;;;29.92;18.75;;;8.00;48.40;;;;;;2068554;28;19905;-61
2021/03/08 05:56:47;;;;;;;34.25;19.83;;;8.00;48.20;;;;;;2067087;28;20034;-60
2021/03/08 05:58:26;;;;;;;33.05;19.15;;;8.00;48.00;;;;;;2070553;28;20038;-61
2021/03/08 06:00:18;;;;;;;31.38;18.83;;;8.00;47.80;;;;;;2068370;28;20040;-61
2021/03/08 06:01:59;;;;;;;32.22;20.27;;;8.00;48.20;;;;;;2072238;28;20026;-61
2021/03/08 06:03:56;;;;;;;34.47;20.27;;;8.00;48.10;;;;;;2069139;28;20027;-61
2021/03/08 06:05:38;;;;;;;35.65;19.10;;;8.00;48.40;;;;;;2067278;28;20038;-61
2021/03/08 06:07:20;;;;;;;36.60;21.65;;;8.00;48.20;;;;;;2071767;28;20464;-61
2021/03/08 06:09:02;;;;;;;35.60;19.90;;;8.00;48.10;;;;;;2067285;28;20552;-61
2021/03/08 06:10:25;;;;;;;34.65;21.08;;;8.00;48.20;;;;;;2066522;28;20092;-60
2021/03/08 06:12:03;;;;;;;37.42;21.73;;;8.00;48.00;;;;;;2073021;28;20447;-61
2021/03/08 06:13:25;;;;;;;39.10;21.40;;;7.90;48.20;;;;;;2071375;28;20045;-61
2021/03/08 06:14:48;;;;;;;34.88;21.67;;;8.00;48.10;;;;;;2073153;28;20658;-60
2021/03/08 06:16:17;;;;;;;37.95;22.50;;;7.90;48.20;;;;;;2070471;28;20464;-61
2021/03/08 06:17:38;;;;;;;38.13;21.90;;;7.90;48.30;;;;;;2068755;28;20022;-60
2021/03/08 06:19:04;;;;;;;35.72;22.00;;;7.90;48.30;;;;;;2068507;28;20049;-61
2021/03/08 06:20:26;;;;;;;39.83;22.67;;;7.90;48.40;;;;;;2070437;28;20029;-60
2021/03/08 06:21:48;;;;;;;35.10;21.90;;;7.90;48.40;;;;;;2068914;28;20053;-61
2021/03/08 06:23:10;;;;;;;36.25;22.67;;;7.90;48.50;;;;;;2065102;28;20037;-61
2021/03/08 06:24:32;;;;;;;34.40;21.02;;;7.90;48.50;;;;;;2061059;28;20774;-60
2021/03/08 06:25:56;;;;;;;38.78;22.00;;;7.90;48.60;;;;;;2068081;28;20061;-60
2021/03/08 06:27:20;;;;;;;36.80;22.05;;;7.90;48.80;;;;;;2070568;28;20412;-60
2021/03/08 06:28:42;;;;;;;35.50;21.80;;;7.90;48.90;;;;;;2069188;28;20035;-61
2021/03/08 06:30:04;;;;;;;37.22;21.42;;;7.90;48.90;;;;;;2064508;28;20041;-60
2021/03/08 06:31:28;;;;;;;38.70;22.58;;;7.90;49.10;;;;;;2067563;28;20041;-60
2021/03/08 06:32:50;;;;;;;40.65;23.10;;;7.90;49.20;;;;;;2069900;28;20025;-63
2021/03/08 06:34:11;;;;;;;37.08;22.40;;;7.90;49.20;;;;;;2070600;28;20456;-60
2021/03/08 06:35:32;;;;;;;38.95;21.92;;;7.90;49.10;;;;;;2067891;28;20129;-60
2021/03/08 06:36:54;;;;;;;39.70;23.83;;;7.90;49.20;;;;;;2070075;28;20048;-61
2021/03/08 06:38:15;;;;;;;38.75;22.58;;;7.90;49.40;;;;;;2069472;28;20116;-61
2021/03/08 06:39:38;;;;;;;37.42;23.60;;;7.90;49.30;;;;;;2067793;28;20041;-61
2021/03/08 06:40:59;;;;;;;36.63;22.08;;;7.90;49.40;;;;;;2068294;28;20076;-61
2021/03/08 06:42:21;;;;;;;38.22;22.45;;;7.90;49.40;;;;;;2071739;28;20025;-61
2021/03/08 06:43:42;;;;;;;37.78;21.88;;;8.00;49.30;;;;;;2067184;28;20049;-60
2021/03/08 06:45:06;;;;;;;40.53;23.30;;;8.00;49.40;;;;;;2065715;28;20137;-61
2021/03/08 06:46:28;;;;;;;40.58;23.30;;;8.00;49.50;;;;;;2066059;28;20065;-60
2021/03/08 06:47:49;;;;;;;39.67;23.65;;;8.00;50.00;;;;;;2066862;28;20055;-61
2021/03/08 06:49:10;;;;;;;39.05;21.55;;;8.00;49.40;;;;;;2060626;28;20500;-61
2021/03/08 06:50:31;;;;;;;32.58;20.92;;;8.00;49.40;;;;;;2067878;28;20038;-61
2021/03/08 06:52:12;;;;;;;37.03;22.17;;;8.00;49.40;;;;;;2069868;28;20041;-61
2021/03/08 06:53:33;;;;;;;37.38;22.08;;;8.00;49.80;;;;;;2071232;28;20540;-61
2021/03/08 06:55:01;;;;;;;35.00;22.10;;;8.00;49.30;;;;;;2069512;28;20534;-60
2021/03/08 06:56:24;;;;;;;41.05;23.58;;;8.00;49.60;;;;;;2069314;28;20030;-61
2021/03/08 06:57:45;;;;;;;36.50;21.85;;;8.00;49.40;;;;;;2068954;28;20105;-61
2021/03/08 06:59:13;;;;;;;40.10;23.35;;;8.00;49.30;;;;;;2064737;28;20492;-61
2021/03/08 07:00:34;;;;;;;38.67;22.48;;;8.00;49.40;;;;;;2066303;28;20035;-61
2021/03/08 07:01:55;;;;;;;36.40;21.98;;;8.10;49.40;;;;;;2066010;28;20034;-60
2021/03/08 07:03:32;;;;;;;40.13;23.38;;;8.10;49.40;;;;;;2069357;28;20357;-61
2021/03/08 07:04:53;;;;;;;37.55;21.73;;;8.10;49.70;;;;;;2067130;28;20076;-61
2021/03/08 07:06:17;;;;;;;35.78;22.30;;;8.10;49.30;;;;;;2069590;28;20037;-61
2021/03/08 07:07:48;;;;;;;38.72;23.05;;;8.10;49.50;;;;;;2068220;28;20793;-60
2021/03/08 07:09:13;;;;;;;36.22;21.60;;;8.10;49.60;;;;;;2067810;28;20018;-60
2021/03/08 07:10:36;;;;;;;38.55;23.27;;;8.10;49.50;;;;;;2067717;28;20025;-61
2021/03/08 07:12:04;;;;;;;36.83;22.35;;;8.10;49.50;;;;;;2070437;28;20094;-60
2021/03/08 07:13:31;;;;;;;38.22;23.35;;;8.10;49.80;;;;;;2066222;28;20040;-60
2021/03/08 07:15:04;;;;;;;36.72;21.67;;;8.20;49.80;;;;;;2069413;28;20421;-60